ENSH/SVJ METAR and TAF weather

Enter ICAO airport designator
Station Type Date Time Source
ENSH METAR 2018/06/25 16:50 UTC NOAA

ENSH 251650Z 21026KT 3500 RADZ VV004 10/09 Q1010 RMK WIND 150FT 20024G40KT 160V290


Station Type Date Time Source
ENSH Decoded METAR 2018/06/25 16:50 UTC NOAA

Svolvaer / Helle, Norway (ENSH) 68-15N 014-40E 9M
Jun 25, 2018 - 12:50 PM EDT / 2018.06.25 1650 UTC
Wind: from the SSW (210 degrees) at 30 MPH (26 KT):0
Visibility: 2 mile(s):0
Sky conditions: obscured
Weather: rain, drizzle
Temperature: 50 F (10 C)
Dew Point: 48 F (9 C)
Relative Humidity: 93%
Pressure (altimeter): 29.83 in. Hg (1010 hPa)
ob: ENSH 251650Z 21026KT 3500 RADZ VV004 10/09 Q1010 RMK WIND 150FT 20024G40KT 160V290
cycle: 17

Station Type Date Time Source
ENSH TAF UTC NOAA

Error!


Example: see airport list